Time;durP1;ratioP1;P1;durP2;ratioP2;P2;SDS_P1;SDS_P2;PMS_P1;PMS_P2;Temp;Humidity;BMP_temperature;BMP_pressure;BME280_temperature;BME280_humidity;BME280_pressure;Samples;Min_cycle;Max_cycle;Signal;HPM_P1;HPM_P2
2022/04/11 00:02:00;;;;;;;4.30;4.00;;;6.20;95.20;;;6.13;65.16;94498.53;5056598;28;20511;-55
2022/04/11 00:04:28;;;;;;;4.17;3.77;;;6.20;95.00;;;6.10;65.05;94490.00;5059862;28;20911;-56
2022/04/11 00:06:56;;;;;;;3.53;3.33;;;6.20;95.00;;;6.10;65.05;94496.97;5060169;28;20457;-54
2022/04/11 00:09:24;;;;;;;3.57;3.30;;;6.20;95.00;;;6.10;64.88;94492.59;5058816;28;20447;-56
2022/04/11 00:11:51;;;;;;;4.50;3.43;;;6.20;94.90;;;6.16;64.78;94499.09;5055530;28;20464;-53
2022/04/11 00:14:18;;;;;;;4.60;3.60;;;6.20;94.80;;;6.18;64.16;94498.97;5060663;28;20545;-56
2022/04/11 00:16:45;;;;;;;4.87;4.00;;;6.20;94.60;;;6.17;64.56;94502.56;5057315;28;20448;-57
2022/04/11 00:19:13;;;;;;;4.50;4.10;;;6.30;94.60;;;6.21;64.51;94509.19;5060799;28;20785;-58
2022/04/11 00:21:40;;;;;;;7.37;3.77;;;6.20;94.50;;;6.23;63.92;94509.91;5052859;28;20521;-56
2022/04/11 00:24:09;;;;;;;4.17;3.60;;;6.30;94.40;;;6.27;63.93;94516.53;5060284;28;20497;-55
2022/04/11 00:26:37;;;;;;;3.93;3.20;;;6.30;94.30;;;6.31;63.83;94515.34;5058753;28;20551;-56
2022/04/11 00:29:04;;;;;;;3.00;2.80;;;6.30;94.20;;;6.38;64.06;94526.97;5060333;28;20455;-55
2022/04/11 00:31:31;;;;;;;3.80;3.50;;;6.40;94.10;;;6.41;63.47;94523.25;5060070;28;20482;-55
2022/04/11 00:33:58;;;;;;;7.63;3.47;;;6.50;93.80;;;6.45;63.63;94529.91;5057897;28;20532;-57
2022/04/11 00:36:26;;;;;;;4.30;3.90;;;6.50;93.80;;;6.47;63.07;94530.59;5060697;28;20991;-54
2022/04/11 00:38:53;;;;;;;3.97;3.30;;;6.50;93.50;;;6.48;62.55;94539.28;5059231;28;20455;-55
2022/04/11 00:41:21;;;;;;;13.40;2.83;;;6.50;93.30;;;6.50;62.46;94545.22;5059675;28;20474;-55
2022/04/11 00:43:49;;;;;;;3.17;2.97;;;6.60;93.30;;;6.50;62.98;94553.06;5057378;28;20804;-55
2022/04/11 00:46:16;;;;;;;3.73;3.43;;;6.60;93.40;;;6.51;62.37;94546.88;5060012;28;20468;-54
2022/04/11 00:48:43;;;;;;;6.57;3.17;;;6.60;93.20;;;6.53;62.40;94555.41;5060246;28;20458;-54
2022/04/11 00:51:15;;;;;;;6.20;3.43;;;6.60;93.20;;;6.56;62.15;94555.19;5060334;28;20580;-57
2022/04/11 00:53:45;;;;;;;3.07;2.87;;;6.60;93.00;;;6.58;62.34;94563.72;5054861;28;20521;-55
2022/04/11 00:56:14;;;;;;;2.93;2.73;;;6.60;92.80;;;6.60;62.01;94564.41;5055984;28;20471;-57
2022/04/11 00:58:43;;;;;;;4.57;2.80;;;6.70;92.80;;;6.62;62.08;94570.34;5061035;28;20462;-55
2022/04/11 01:01:10;;;;;;;3.13;2.77;;;6.70;92.60;;;6.62;61.83;94576.41;5059845;28;20532;-55
2022/04/11 01:03:37;;;;;;;5.17;3.17;;;6.70;92.40;;;6.63;61.72;94582.44;5053122;28;20494;-55
2022/04/11 01:06:06;;;;;;;4.80;3.23;;;6.70;92.40;;;6.64;61.26;94584.94;5059403;28;20483;-56
2022/04/11 01:08:34;;;;;;;4.10;2.93;;;6.70;92.20;;;6.67;61.74;94585.66;5058057;28;20984;-56
2022/04/11 01:11:02;;;;;;;8.40;3.70;;;6.70;92.20;;;6.66;60.97;94590.03;5057678;28;20482;-57
2022/04/11 01:13:30;;;;;;;4.57;2.47;;;6.70;91.70;;;6.66;61.19;94595.28;5063520;28;20517;-55
2022/04/11 01:15:59;;;;;;;2.63;2.47;;;6.70;91.90;;;6.63;60.87;94609.44;5056989;28;20482;-55
2022/04/11 01:18:26;;;;;;;3.90;2.97;;;6.70;91.70;;;6.59;61.19;94599.34;5057058;28;20872;-54
2022/04/11 01:20:54;;;;;;;3.37;2.50;;;6.70;91.80;;;6.62;61.24;94607.75;5059279;28;20470;-54
2022/04/11 01:23:22;;;;;;;3.93;2.50;;;6.70;92.00;;;6.62;61.08;94610.38;5056726;28;20487;-55
2022/04/11 01:25:51;;;;;;;4.43;2.80;;;6.70;91.90;;;6.62;60.52;94613.00;5059873;28;20490;-56
2022/04/11 01:28:18;;;;;;;2.57;2.37;;;6.70;91.70;;;6.61;61.20;94613.94;5059681;28;20510;-56
2022/04/11 01:30:46;;;;;;;4.47;2.90;;;6.70;91.60;;;6.61;61.15;94618.34;5054168;28;20463;-56
2022/04/11 01:33:19;;;;;;;3.80;2.33;;;6.70;91.70;;;6.62;61.03;94622.63;5052894;28;20447;-54
2022/04/11 01:35:46;;;;;;;2.30;2.20;;;6.70;91.70;;;6.61;60.57;94626.19;5056666;28;21039;-56
2022/04/11 01:38:13;;;;;;;2.93;2.60;;;6.70;91.60;;;6.61;60.48;94626.19;5059022;28;21238;-55
2022/04/11 01:40:50;;;;;;;5.40;2.77;;;6.70;91.60;;;6.61;60.41;94636.63;5056984;28;20552;-55
2022/04/11 01:43:17;;;;;;;5.73;3.00;;;6.70;91.40;;;6.63;61.10;94639.94;5057134;28;20504;-56
2022/04/11 01:45:44;;;;;;;3.10;2.70;;;6.70;91.50;;;6.65;60.67;94643.28;5056826;28;20544;-53
2022/04/11 01:48:12;;;;;;;2.83;2.40;;;6.70;91.30;;;6.66;60.18;94637.09;5057894;28;20455;-54
2022/04/11 01:50:39;;;;;;;2.83;2.33;;;6.70;91.10;;;6.67;60.08;94641.38;5055472;28;20471;-54
2022/04/11 01:53:07;;;;;;;4.10;2.80;;;6.70;90.80;;;6.64;59.74;94631.16;5054238;28;20474;-58
2022/04/11 01:55:34;;;;;;;2.30;2.10;;;6.70;90.80;;;6.65;59.94;94648.50;5054335;28;20475;-54
2022/04/11 01:58:03;;;;;;;5.07;2.57;;;6.70;90.80;;;6.64;59.72;94658.13;5059263;28;20833;-54
2022/04/11 02:00:31;;;;;;;4.73;2.50;;;6.70;90.80;;;6.63;60.15;94664.31;5058518;28;20547;-53
2022/04/11 02:02:59;;;;;;;7.03;2.57;;;6.70;90.80;;;6.62;60.07;94665.25;5054470;28;21054;-56
2022/04/11 02:05:26;;;;;;;2.30;2.20;;;6.70;90.90;;;6.63;60.26;94677.38;5055197;28;20483;-55
2022/04/11 02:07:53;;;;;;;5.57;2.80;;;6.70;90.80;;;6.62;60.15;94680.94;5054320;28;20461;-56
2022/04/11 02:10:21;;;;;;;2.77;2.30;;;6.70;90.80;;;6.63;60.22;94685.22;5059121;28;20490;-55
2022/04/11 02:12:48;;;;;;;2.80;2.60;;;6.70;91.00;;;6.63;60.07;94681.75;5050735;28;20459;-53
2022/04/11 02:15:17;;;;;;;2.33;2.13;;;6.70;90.80;;;6.64;60.09;94686.03;5048243;28;20467;-56
2022/04/11 02:17:46;;;;;;;2.07;1.97;;;6.70;90.90;;;6.65;60.23;94690.31;5058336;28;20827;-55
2022/04/11 02:20:13;;;;;;;2.73;2.53;;;6.70;90.90;;;6.67;60.01;94684.97;5055806;28;20811;-55
2022/04/11 02:22:49;;;;;;;2.83;2.60;;;6.70;90.90;;;6.70;60.37;94693.41;5059219;28;20443;-54
2022/04/11 02:25:16;;;;;;;2.53;2.07;;;6.70;90.90;;;6.71;60.37;94699.44;5052975;28;20467;-55
2022/04/11 02:27:44;;;;;;;3.70;2.10;;;6.70;90.80;;;6.71;60.59;94699.44;5058960;28;21015;-56
2022/04/11 02:30:12;;;;;;;2.77;2.57;;;6.80;90.90;;;6.72;60.12;94707.16;5059047;28;20485;-56
2022/04/11 02:32:40;;;;;;;5.10;3.20;;;6.80;90.90;;;6.73;60.24;94708.84;5056113;28;20451;-54
2022/04/11 02:35:08;;;;;;;5.47;2.80;;;6.80;90.90;;;6.75;59.89;94719.19;5056639;28;20475;-55
2022/04/11 02:37:36;;;;;;;2.63;2.43;;;6.80;90.90;;;6.75;59.73;94711.34;5057227;28;20532;-55
2022/04/11 02:40:05;;;;;;;2.67;2.00;;;6.80;90.90;;;6.75;59.53;94721.78;5053470;28;20999;-55
2022/04/11 02:42:32;;;;;;;2.37;2.17;;;6.80;90.80;;;6.78;59.60;94724.97;5055217;28;20467;-55
2022/04/11 02:44:59;;;;;;;2.33;2.17;;;6.80;90.90;;;6.79;59.75;94728.44;5050506;28;20551;-56
2022/04/11 02:47:27;;;;;;;2.40;2.20;;;6.90;90.90;;;6.80;60.29;94728.34;5055797;28;20447;-57
2022/04/11 02:49:56;;;;;;;2.40;2.20;;;6.80;90.90;;;6.84;60.51;94734.13;5058189;28;20562;-53
2022/04/11 02:52:23;;;;;;;2.40;2.20;;;6.90;91.10;;;6.86;60.35;94734.00;5058159;28;20456;-55
2022/04/11 02:54:50;;;;;;;3.23;2.93;;;6.90;91.10;;;6.89;60.01;94739.81;5059860;28;20486;-54
2022/04/11 02:57:18;;;;;;;2.40;2.20;;;6.90;91.00;;;6.90;60.28;94745.91;5060705;28;20451;-56
2022/04/11 02:59:45;;;;;;;2.50;2.23;;;6.90;90.90;;;6.92;60.00;94754.44;5056330;28;20821;-53
2022/04/11 03:02:12;;;;;;;2.10;2.00;;;7.00;91.00;;;6.93;60.48;94756.13;5056316;28;20464;-56
2022/04/11 03:04:39;;;;;;;3.20;2.07;;;7.00;91.00;;;6.93;59.99;94746.50;5050907;28;20499;-56
2022/04/11 03:07:08;;;;;;;2.33;2.23;;;7.00;91.00;;;6.95;60.63;94752.41;5055551;28;21071;-57
2022/04/11 03:09:35;;;;;;;2.20;2.00;;;7.00;91.10;;;6.96;60.55;94750.66;5057645;28;20611;-56
2022/04/11 03:12:04;;;;;;;2.73;2.53;;;7.00;91.30;;;6.98;60.62;94748.75;5059027;28;20462;-57
2022/04/11 03:14:31;;;;;;;3.57;2.27;;;7.00;91.30;;;7.00;60.28;94754.66;5053248;28;20451;-56
2022/04/11 03:16:58;;;;;;;2.23;2.13;;;7.00;91.20;;;7.02;60.12;94755.41;5052899;28;20458;-54
2022/04/11 03:19:26;;;;;;;6.70;2.40;;;7.00;91.00;;;7.03;60.49;94764.06;5057441;28;20496;-56
2022/04/11 03:21:53;;;;;;;2.20;1.90;;;7.00;91.00;;;7.03;59.92;94767.50;5056686;28;20526;-57
2022/04/11 03:24:22;;;;;;;4.43;1.67;;;7.10;91.00;;;7.04;59.93;94768.34;5052389;28;20558;-56
2022/04/11 03:26:49;;;;;;;2.90;2.70;;;7.10;91.00;;;7.06;60.06;94776.91;5058756;28;20459;-56
2022/04/11 03:29:16;;;;;;;2.87;2.67;;;7.10;91.00;;;7.07;60.18;94779.41;5057447;28;20447;-56
2022/04/11 03:31:43;;;;;;;2.60;2.40;;;7.10;91.00;;;7.09;60.09;94782.72;5053630;28;20463;-55
2022/04/11 03:34:11;;;;;;;3.30;2.80;;;7.10;91.00;;;7.09;60.26;94779.28;5056841;28;20513;-56
2022/04/11 03:36:38;;;;;;;2.27;2.00;;;7.10;91.00;;;7.11;59.58;94791.28;5056072;28;20475;-55
2022/04/11 03:39:05;;;;;;;3.03;2.40;;;7.10;90.80;;;7.12;59.63;94795.53;5055826;28;20481;-54
2022/04/11 03:41:34;;;;;;;5.70;2.57;;;7.20;90.80;;;7.12;58.97;94795.53;5053569;28;20489;-54
2022/04/11 03:44:01;;;;;;;3.43;3.07;;;7.20;90.50;;;7.07;59.19;94800.31;5053084;28;20608;-57
2022/04/11 03:46:29;;;;;;;2.90;2.70;;;7.10;89.80;;;7.05;59.13;94809.22;5053961;28;20478;-54
2022/04/11 03:48:57;;;;;;;3.20;2.60;;;7.10;90.00;;;6.99;59.48;94797.47;5057066;28;20505;-54
2022/04/11 03:51:24;;;;;;;5.40;2.77;;;7.00;90.10;;;6.97;58.82;94807.22;5056155;28;21412;-54
2022/04/11 03:53:51;;;;;;;3.50;3.20;;;7.00;89.80;;;6.94;58.55;94810.91;5051734;28;20455;-56
2022/04/11 03:56:18;;;;;;;5.00;3.50;;;7.00;89.40;;;6.93;59.60;94813.66;5052343;28;20863;-56
2022/04/11 03:58:47;;;;;;;7.63;3.27;;;7.00;90.10;;;6.92;59.45;94817.19;5053354;28;20801;-54
2022/04/11 04:01:14;;;;;;;3.70;2.87;;;7.00;90.00;;;6.91;58.78;94816.38;5055685;28;20472;-56
2022/04/11 04:03:42;;;;;;;3.30;2.33;;;6.90;89.50;;;6.90;59.33;94814.69;5054937;28;20494;-56
2022/04/11 04:06:09;;;;;;;10.17;3.83;;;7.00;90.30;;;6.93;60.19;94826.72;5053556;28;20957;-57
2022/04/11 04:08:36;;;;;;;4.57;2.73;;;7.00;91.00;;;6.98;59.97;94829.78;5057920;28;20446;-55
2022/04/11 04:11:04;;;;;;;4.60;3.70;;;7.00;91.20;;;7.05;59.26;94830.16;5060186;28;20471;-53
2022/04/11 04:13:31;;;;;;;4.50;3.77;;;7.10;90.40;;;7.06;59.38;94834.44;5058320;28;21453;-54
2022/04/11 04:16:00;;;;;;;5.93;3.60;;;7.10;90.50;;;7.08;59.75;94837.75;5054779;28;20472;-54
2022/04/11 04:18:27;;;;;;;3.33;3.10;;;7.10;90.80;;;7.09;58.69;94839.44;5052571;28;20454;-54
2022/04/11 04:20:54;;;;;;;9.40;4.27;;;7.10;89.80;;;7.08;59.08;94836.00;5056807;28;20474;-55
2022/04/11 04:23:21;;;;;;;4.93;3.23;;;7.10;89.30;;;7.07;59.13;94846.56;5057870;28;20447;-54
2022/04/11 04:25:49;;;;;;;4.07;3.77;;;7.10;90.20;;;7.07;58.64;94852.63;5060183;28;20528;-56
2022/04/11 04:28:17;;;;;;;4.03;3.53;;;7.10;89.90;;;7.08;59.23;94850.81;5060005;28;20482;-56
2022/04/11 04:30:45;;;;;;;10.23;4.30;;;7.10;90.00;;;7.10;59.18;94855.00;5057491;28;20582;-55
2022/04/11 04:33:13;;;;;;;3.47;3.00;;;7.20;90.00;;;7.11;58.81;94854.06;5058358;28;21050;-55
2022/04/11 04:35:41;;;;;;;4.00;3.50;;;7.10;89.20;;;7.11;58.16;94861.91;5056797;28;20482;-56
2022/04/11 04:38:08;;;;;;;4.50;3.73;;;7.10;88.80;;;7.09;58.74;94861.16;5058121;28;20458;-54
2022/04/11 04:40:35;;;;;;;3.50;3.20;;;7.10;88.70;;;7.12;58.02;94870.56;5061478;28;21246;-56
2022/04/11 04:43:04;;;;;;;7.27;3.73;;;7.10;88.80;;;7.10;58.09;94873.31;5058922;28;20896;-54
2022/04/11 04:45:31;;;;;;;4.30;3.63;;;7.20;88.60;;;7.07;57.95;94881.38;5057978;28;20518;-58
2022/04/11 04:47:59;;;;;;;4.83;3.40;;;7.10;88.50;;;7.09;58.25;94886.50;5056450;28;20459;-54
2022/04/11 04:50:27;;;;;;;2.80;2.60;;;7.10;89.00;;;7.10;57.47;94888.19;5054515;28;20478;-57
2022/04/11 04:52:54;;;;;;;8.00;4.47;;;7.20;87.90;;;7.09;57.68;94891.72;5057412;28;20467;-55
2022/04/11 04:55:22;;;;;;;3.50;3.20;;;7.10;87.30;;;7.05;57.74;94895.53;5056758;28;20596;-56
2022/04/11 04:57:50;;;;;;;4.90;4.50;;;7.10;87.00;;;7.02;57.61;94903.59;5053089;28;20534;-55
2022/04/11 05:00:18;;;;;;;4.20;3.90;;;7.10;86.30;;;6.98;57.27;94900.41;5060293;28;20471;-56
2022/04/11 05:02:45;;;;;;;6.90;4.90;;;7.10;86.30;;;6.96;57.78;94908.34;5060436;28;20460;-52
2022/04/11 05:05:14;;;;;;;5.17;3.90;;;7.00;86.40;;;6.96;57.59;94905.75;5055231;28;20506;-58
2022/04/11 05:07:43;;;;;;;11.30;3.87;;;7.00;86.20;;;6.97;57.12;94914.41;5057973;28;20455;-56
2022/04/11 05:10:11;;;;;;;13.03;4.60;;;7.00;86.20;;;6.96;57.64;94912.75;5055356;28;20482;-57
2022/04/11 05:12:42;;;;;;;4.60;4.20;;;7.00;86.20;;;6.95;57.44;94916.31;5061226;28;20900;-56
2022/04/11 05:15:11;;;;;;;6.40;4.27;;;7.00;86.20;;;6.97;57.03;94923.09;5055774;28;20474;-55
2022/04/11 05:17:38;;;;;;;7.27;4.40;;;7.00;86.20;;;6.96;57.44;94928.47;5058170;28;20451;-55
2022/04/11 05:20:10;;;;;;;4.03;3.73;;;7.00;86.20;;;6.97;57.15;94932.72;5055761;28;20971;-56
2022/04/11 05:22:37;;;;;;;4.20;3.90;;;7.00;86.20;;;6.99;57.72;94933.44;5061115;28;20547;-56
2022/04/11 05:25:07;;;;;;;4.60;4.00;;;7.00;86.70;;;7.04;56.96;94938.34;5056517;28;20498;-56
2022/04/11 05:27:35;;;;;;;6.63;4.50;;;7.10;86.30;;;7.09;57.46;94939.63;5057779;28;20459;-56
2022/04/11 05:30:05;;;;;;;8.50;4.20;;;7.10;86.30;;;7.12;56.72;94928.94;5060280;28;20482;-53
2022/04/11 05:32:33;;;;;;;5.57;4.60;;;7.20;86.40;;;7.15;56.35;94938.34;5058080;28;20512;-55
2022/04/11 05:35:00;;;;;;;4.13;3.30;;;7.20;85.30;;;7.16;56.64;94940.84;5060401;28;20555;-54
2022/04/11 05:37:27;;;;;;;6.27;4.37;;;7.20;85.20;;;7.20;56.57;94943.22;5063326;28;21043;-55
2022/04/11 05:39:55;;;;;;;5.00;4.27;;;7.20;84.70;;;7.22;56.64;94941.31;5059377;28;20525;-56
2022/04/11 05:42:23;;;;;;;4.80;4.30;;;7.30;84.80;;;7.27;56.49;94942.63;5056851;28;20664;-56
2022/04/11 05:44:51;;;;;;;5.53;5.03;;;7.30;84.70;;;7.30;55.51;94942.41;5054078;28;20528;-57
2022/04/11 05:47:18;;;;;;;12.43;5.50;;;7.40;83.80;;;7.29;56.00;94934.66;5051664;28;20508;-55
2022/04/11 05:49:45;;;;;;;5.20;4.00;;;7.40;83.50;;;7.26;55.42;94948.81;5055328;28;20472;-58
2022/04/11 05:52:16;;;;;;;5.47;5.00;;;7.30;83.40;;;7.26;55.97;94947.97;5057755;28;20452;-56
2022/04/11 05:54:43;;;;;;;4.50;4.20;;;7.30;83.60;;;7.26;55.79;94951.41;5055946;28;20507;-56
2022/04/11 05:57:11;;;;;;;8.77;4.23;;;7.30;83.50;;;7.28;55.99;94948.69;5053582;28;20498;-56
2022/04/11 05:59:39;;;;;;;4.47;4.07;;;7.30;83.40;;;7.28;55.36;94956.53;5055403;28;20857;-57
2022/04/11 06:02:09;;;;;;;5.93;4.03;;;7.40;83.50;;;7.29;55.80;94963.44;5054946;28;20463;-57
2022/04/11 06:04:37;;;;;;;5.40;4.03;;;7.40;83.60;;;7.29;56.09;94956.41;5056330;28;20502;-59
2022/04/11 06:07:05;;;;;;;6.93;4.07;;;7.40;83.60;;;7.31;55.19;94958.91;5057930;28;20459;-55
2022/04/11 06:09:33;;;;;;;6.83;4.60;;;7.40;83.10;;;7.28;55.88;94977.47;5056483;28;20463;-56
2022/04/11 06:12:00;;;;;;;7.00;3.97;;;7.30;83.20;;;7.24;55.12;94970.81;5055978;28;21045;-56
2022/04/11 06:14:28;;;;;;;4.23;3.80;;;7.30;82.70;;;7.21;55.00;94973.66;5058593;28;20451;-57
2022/04/11 06:16:57;;;;;;;6.70;3.90;;;7.30;82.70;;;7.20;54.68;94979.84;5054396;28;20466;-56
2022/04/11 06:19:25;;;;;;;7.23;4.70;;;7.20;81.80;;;7.20;55.28;94982.47;5050982;28;20894;-56
2022/04/11 06:21:52;;;;;;;8.20;4.77;;;7.20;82.30;;;7.25;55.30;94977.69;5060784;28;20451;-56
2022/04/11 06:24:20;;;;;;;11.53;4.87;;;7.30;83.20;;;7.42;55.79;94979.88;5056464;28;20491;-56
2022/04/11 06:26:47;;;;;;;4.50;4.10;;;7.40;82.80;;;7.60;54.24;94976.78;5061873;28;20452;-56
2022/04/11 06:29:14;;;;;;;4.40;4.10;;;7.50;81.40;;;7.80;54.85;94983.09;5049058;28;20522;-56
2022/04/11 06:31:41;;;;;;;6.63;4.23;;;7.80;81.50;;;8.04;53.90;94972.44;5056625;28;20528;-56
2022/04/11 06:34:10;;;;;;;7.77;3.33;;;8.00;80.90;;;8.30;54.03;94977.41;5055109;28;20827;-57
2022/04/11 06:36:38;;;;;;;5.20;4.70;;;8.20;80.70;;;8.69;52.77;94991.75;5057043;28;20482;-54
2022/04/11 06:39:05;;;;;;;8.20;4.70;;;8.50;79.80;;;9.08;52.77;94985.97;5054175;28;20455;-56
2022/04/11 06:41:33;;;;;;;7.03;3.77;;;8.90;79.60;;;9.41;52.62;94994.56;5055150;28;20800;-56
2022/04/11 06:44:00;;;;;;;4.83;4.33;;;9.20;79.50;;;9.62;52.27;94976.16;5055093;28;20463;-56
2022/04/11 06:46:27;;;;;;;3.97;3.67;;;9.50;78.20;;;9.80;51.21;94989.50;5055187;28;21024;-56
2022/04/11 06:48:55;;;;;;;23.13;4.63;;;9.70;76.40;;;10.05;50.32;94983.81;5057452;28;20486;-56
2022/04/11 06:51:23;;;;;;;6.30;3.87;;;9.90;74.60;;;10.38;50.01;94988.91;5055639;28;20665;-57
2022/04/11 06:53:51;;;;;;;5.57;4.20;;;10.20;72.90;;;10.74;48.48;94990.03;5057385;28;20455;-56
2022/04/11 06:56:18;;;;;;;8.10;4.80;;;10.50;70.10;;;11.12;48.47;94988.38;5053768;28;20861;-57
2022/04/11 06:58:46;;;;;;;5.17;4.07;;;10.90;70.20;;;11.36;48.67;94989.72;5057977;28;20455;-56
2022/04/11 07:01:13;;;;;;;6.30;3.97;;;11.10;68.80;;;11.64;47.52;95005.59;5058141;28;20471;-55
2022/04/11 07:03:41;;;;;;;3.70;3.40;;;11.40;67.20;;;11.87;46.91;95003.44;5058666;28;20466;-54
2022/04/11 07:06:09;;;;;;;4.97;3.93;;;11.70;66.10;;;12.02;46.43;94994.09;5054735;28;20501;-56
2022/04/11 07:08:37;;;;;;;5.60;3.40;;;11.80;64.60;;;12.23;46.44;95003.59;5050715;28;20462;-57
2022/04/11 07:11:06;;;;;;;6.97;4.17;;;12.00;64.40;;;12.45;45.43;95001.53;5052548;28;20486;-59
2022/04/11 07:13:34;;;;;;;11.87;4.73;;;12.20;64.00;;;12.69;45.80;95014.97;5056215;28;20459;-56
2022/04/11 07:16:02;;;;;;;7.70;3.70;;;12.50;64.00;;;12.95;46.17;95008.13;5056039;28;20486;-57
2022/04/11 07:18:31;;;;;;;9.27;4.50;;;12.70;64.00;;;13.20;43.87;95017.94;5050683;28;20452;-56
2022/04/11 07:20:58;;;;;;;8.67;4.80;;;12.90;59.30;;;13.31;44.29;95013.38;5057705;28;20556;-54
2022/04/11 07:23:25;;;;;;;10.63;4.30;;;13.10;58.80;;;13.43;43.04;95020.09;5055661;28;20451;-56
2022/04/11 07:25:54;;;;;;;6.10;3.63;;;13.20;57.50;;;13.48;42.08;95004.63;5054381;28;20568;-57
2022/04/11 07:28:21;;;;;;;4.13;3.70;;;13.30;55.10;;;13.62;42.51;95019.94;5046813;28;20459;-54
2022/04/11 07:30:49;;;;;;;5.63;3.90;;;13.40;55.90;;;13.77;42.35;95017.56;5046630;28;20467;-55
2022/04/11 07:33:16;;;;;;;3.93;3.63;;;13.50;55.90;;;13.89;42.38;95012.81;5050467;28;20455;-56
2022/04/11 07:35:43;;;;;;;3.87;3.47;;;13.70;55.70;;;14.13;41.94;95020.06;5052089;28;20485;-56
2022/04/11 07:38:11;;;;;;;4.50;4.10;;;13.90;55.70;;;14.15;40.70;95023.38;5049695;28;20475;-56
2022/04/11 07:40:38;;;;;;;8.93;3.83;;;13.90;54.10;;;13.98;41.01;95022.44;5054569;28;20946;-55
2022/04/11 07:43:07;;;;;;;10.13;4.50;;;13.90;53.30;;;14.19;40.76;95023.03;5054232;28;20885;-55
2022/04/11 07:45:34;;;;;;;9.97;3.33;;;13.90;53.30;;;14.37;41.37;95025.63;5056139;28;20491;-55
2022/04/11 07:48:01;;;;;;;8.67;4.70;;;14.10;53.60;;;14.45;41.00;95033.56;5053999;28;20447;-56
2022/04/11 07:50:29;;;;;;;7.13;4.07;;;14.20;53.10;;;14.61;39.90;95030.19;5051382;28;20966;-59
2022/04/11 07:52:56;;;;;;;4.70;4.27;;;14.40;52.20;;;14.84;41.37;95038.34;5058944;28;20451;-55
2022/04/11 07:55:24;;;;;;;6.60;3.67;;;14.50;54.00;;;15.19;40.57;95044.38;5054655;28;20479;-53
2022/04/11 07:57:51;;;;;;;6.03;4.00;;;14.90;53.00;;;15.66;40.11;95038.44;5054651;28;20458;-55
2022/04/11 08:00:20;;;;;;;3.60;3.30;;;15.40;52.60;;;16.10;39.94;95053.97;5046705;28;20507;-56
2022/04/11 08:02:52;;;;;;;3.80;3.50;;;15.90;52.50;;;16.34;37.70;95052.25;5058225;28;20451;-58
2022/04/11 08:05:20;;;;;;;3.60;3.30;;;16.20;48.90;;;16.38;37.85;95055.41;5059652;28;20585;-55
2022/04/11 08:07:47;;;;;;;5.23;2.60;;;16.40;49.30;;;16.58;36.35;95054.00;5058843;28;20462;-53
2022/04/11 08:10:16;;;;;;;8.47;4.70;;;16.50;47.50;;;16.65;38.73;95059.44;5062877;28;20478;-56
2022/04/11 08:12:52;;;;;;;5.13;3.90;;;16.70;49.50;;;16.98;37.08;95052.19;5062794;28;20963;-56
2022/04/11 08:15:21;;;;;;;5.67;2.90;;;16.90;48.30;;;17.34;36.24;95061.41;5057928;28;20468;-56
2022/04/11 08:17:48;;;;;;;6.27;3.70;;;17.20;47.00;;;17.63;36.03;95062.53;5060175;28;20452;-57
2022/04/11 08:20:15;;;;;;;3.30;3.03;;;17.60;46.80;;;17.81;35.42;95059.56;5061403;28;20466;-56
2022/04/11 08:22:43;;;;;;;11.43;4.13;;;17.80;45.50;;;17.83;34.16;95047.72;5059109;28;20451;-56
2022/04/11 08:25:10;;;;;;;3.63;2.67;;;18.00;43.40;;;17.99;34.98;95059.25;5056987;28;20490;-56
2022/04/11 08:27:38;;;;;;;3.40;3.07;;;18.20;43.40;;;18.15;35.24;95056.44;5057832;28;20517;-55
2022/04/11 08:30:06;;;;;;;4.67;3.47;;;18.40;44.10;;;18.37;35.12;95059.19;5052241;28;20483;-58
2022/04/11 08:32:39;;;;;;;7.33;3.47;;;18.70;44.00;;;18.36;34.49;95054.91;5053652;28;20455;-54
2022/04/11 08:35:08;;;;;;;4.43;4.03;;;18.80;43.00;;;17.82;33.90;95064.69;5059760;28;20468;-54
2022/04/11 08:37:37;;;;;;;6.37;4.00;;;18.40;42.50;;;17.63;34.54;95065.19;5058441;28;20466;-55
2022/04/11 08:40:07;;;;;;;5.40;3.37;;;18.10;42.80;;;17.67;33.30;95072.63;5058549;28;20510;-57
2022/04/11 08:42:34;;;;;;;5.70;3.30;;;18.00;41.00;;;17.69;34.70;95067.97;5054784;28;21050;-57
2022/04/11 08:45:01;;;;;;;4.03;3.50;;;18.00;43.10;;;17.65;34.55;95073.81;5057521;28;20492;-55
2022/04/11 08:47:28;;;;;;;10.50;3.63;;;17.90;42.90;;;17.80;34.24;95065.88;5060772;28;20482;-55
2022/04/11 08:49:57;;;;;;;7.47;3.33;;;17.80;42.40;;;17.95;35.50;95074.75;5052100;28;20487;-55
2022/04/11 08:52:24;;;;;;;3.57;3.30;;;17.90;44.50;;;18.22;34.81;95075.19;5056038;28;20455;-56
2022/04/11 08:54:52;;;;;;;7.70;3.97;;;18.10;43.70;;;18.44;33.98;95084.09;5056550;28;21071;-55
2022/04/11 08:57:19;;;;;;;4.00;3.70;;;18.20;43.30;;;18.36;33.38;95084.19;5056494;28;20498;-54
2022/04/11 08:59:46;;;;;;;4.23;3.80;;;18.20;42.40;;;18.24;34.03;95081.13;5051490;28;20475;-56
2022/04/11 09:02:14;;;;;;;4.20;3.83;;;18.10;42.10;;;17.76;34.22;95076.06;5051840;28;20466;-55
2022/04/11 09:04:51;;;;;;;3.73;3.50;;;17.80;41.90;;;17.17;34.01;95074.81;5054597;28;20892;-57
2022/04/11 09:07:20;;;;;;;3.53;2.83;;;17.30;42.00;;;16.81;34.18;95070.00;5057023;28;20984;-59
2022/04/11 09:09:47;;;;;;;13.80;3.60;;;16.80;42.50;;;16.62;34.29;95065.94;5051528;28;20873;-57
2022/04/11 09:12:15;;;;;;;4.37;3.03;;;16.60;42.90;;;16.18;34.53;95074.38;5057090;28;20598;-55
2022/04/11 09:14:43;;;;;;;3.80;3.30;;;16.20;41.90;;;15.86;35.29;95080.53;5057200;28;20876;-56
2022/04/11 09:17:10;;;;;;;6.40;4.23;;;15.90;43.00;;;15.92;35.56;95070.09;5056533;28;20456;-54
2022/04/11 09:19:38;;;;;;;5.17;3.33;;;15.80;44.20;;;16.10;36.00;95072.56;5055640;28;20550;-55
2022/04/11 09:22:06;;;;;;;4.40;3.43;;;15.90;44.60;;;16.40;34.45;95078.09;5061283;28;20463;-56
2022/04/11 09:24:35;;;;;;;3.47;2.43;;;16.10;43.70;;;16.67;34.45;95084.00;5056526;28;20486;-57
2022/04/11 09:27:03;;;;;;;2.90;2.80;;;16.40;43.10;;;16.99;35.27;95082.22;5058508;28;21027;-55
2022/04/11 09:29:33;;;;;;;4.63;3.87;;;16.70;44.30;;;17.46;34.78;95081.28;5055773;28;20474;-55
2022/04/11 09:32:04;;;;;;;3.90;3.60;;;17.10;44.40;;;17.84;33.89;95081.31;5053710;28;20830;-55
2022/04/11 09:34:31;;;;;;;5.20;2.93;;;17.40;42.80;;;17.69;33.06;95094.56;5059739;28;21036;-55
2022/04/11 09:37:01;;;;;;;4.90;3.10;;;17.50;41.90;;;17.42;33.18;95079.16;5056640;28;20459;-56
2022/04/11 09:39:30;;;;;;;6.23;3.10;;;17.40;41.40;;;17.25;33.76;95081.09;5060713;28;20526;-57
2022/04/11 09:41:59;;;;;;;2.97;2.77;;;17.20;41.60;;;17.26;34.40;95077.41;5048594;28;20517;-55
2022/04/11 09:44:27;;;;;;;5.17;3.13;;;17.10;42.70;;;17.42;33.62;95093.25;5056332;28;20451;-55
2022/04/11 09:46:56;;;;;;;4.67;3.13;;;17.20;41.90;;;17.63;33.92;95083.81;5057693;28;20487;-57
2022/04/11 09:49:24;;;;;;;2.63;2.47;;;17.30;42.40;;;17.91;31.96;95074.28;5058170;28;20455;-56
2022/04/11 09:52:08;;;;;;;5.23;3.33;;;17.60;41.20;;;17.88;32.31;95072.00;5056099;28;20456;-56
2022/04/11 09:54:37;;;;;;;4.20;2.83;;;17.60;40.80;;;17.98;33.47;95078.91;5058173;28;20475;-56
2022/04/11 09:57:06;;;;;;;11.63;3.40;;;17.70;41.70;;;18.13;31.11;95076.28;5057857;28;20447;-55
2022/04/11 09:59:34;;;;;;;3.20;2.93;;;17.80;39.60;;;18.23;32.10;95067.00;5053909;28;20455;-57
2022/04/11 10:02:02;;;;;;;5.97;2.57;;;18.00;40.80;;;18.32;32.61;95072.25;5057021;28;20842;-56
2022/04/11 10:04:29;;;;;;;4.60;3.47;;;18.10;40.80;;;18.29;31.69;95062.78;5050991;28;20467;-57
2022/04/11 10:06:57;;;;;;;4.00;2.87;;;18.00;40.10;;;18.09;31.86;95059.81;5057743;28;20568;-57
2022/04/11 10:09:24;;;;;;;3.57;3.37;;;17.90;39.90;;;17.72;31.92;95064.09;5055738;28;20460;-56
2022/04/11 10:11:53;;;;;;;3.90;3.67;;;17.60;39.70;;;17.33;31.81;95065.91;5061412;28;20456;-55
2022/04/11 10:14:27;;;;;;;3.87;3.57;;;17.20;39.70;;;16.99;32.25;95061.81;5056486;28;20447;-56
2022/04/11 10:16:56;;;;;;;4.73;2.90;;;16.90;40.10;;;16.59;33.39;95060.13;5057137;28;20435;-57
2022/04/11 10:19:25;;;;;;;4.83;3.07;;;16.60;40.80;;;16.29;32.32;95074.00;5060477;28;20985;-57
2022/04/11 10:21:55;;;;;;;8.73;3.27;;;16.30;39.70;;;16.09;33.09;95060.28;5059883;28;20458;-57
2022/04/11 10:24:34;;;;;;;8.77;4.13;;;16.00;40.30;;;15.98;33.43;95073.91;5057459;28;20829;-55
2022/04/11 10:27:18;;;;;;;4.83;4.00;;;15.90;41.60;;;15.86;33.86;95059.31;5055517;28;20589;-58
2022/04/11 10:29:48;;;;;;;4.93;3.43;;;15.70;41.90;;;15.77;33.63;95064.66;5056235;28;20481;-57
2022/04/11 10:32:16;;;;;;;3.10;2.80;;;15.60;41.50;;;15.77;34.38;95061.19;5059179;28;20451;-56